Главная страница
METAR-TAF:

METAR-TAF

Аэропорты :

Хамадан, Иран

широта: 34-52-05N, долгота: 048-33-08E, высота над уровнем моря: 1757 м

Текущие метеонаблюдения

Эта сводка был подготовлена 1 час и 7 минут назад, в 00:00 UTC
Ветер 10 Узел от южный с порывами до 25 Узел
Температура 10°C
Влажность 46%
Давление 1020 hPa
Видимость 10 км и более
небольшая облачность на высоте 4000 фута

METAR: OIHH 270000Z 17010G25KT 9999 FEW040 10/M01 Q1019 A3012

Время: 04:37 (01:07 UTC)


TAF: отсутствует

Метеонаблюдения и прогнозы для более 4000 аэропортов (сводки METAR и TAF).

Имеющиеся станции представлены на карте желтыми и красными точками.

Чтобы увидеть название станции, наведите на нее мышь.

Затем щелкните, чтобы увидеть метеонаблюдения и метеопрогнозы.

Управление картой: чтобы увеличить масштаб, щелкните зеленые кнопки с черным крестиком; чтобы уменьшить масштаб, щелкните зеленую кнопку с тире; для просмотра соседних карт щелкайте зеленые стрелки.


METAR-TAF: